sensor_id;sensor_type;location;lat;lon;timestamp;temperature;humidity
55777;DHT22;54079;44.540;18.784;2022-11-15T00:00:28;11.60;98.60
55777;DHT22;54079;44.540;18.784;2022-11-15T00:02:54;11.60;99.10
55777;DHT22;54079;44.540;18.784;2022-11-15T00:05:21;11.60;97.70
55777;DHT22;54079;44.540;18.784;2022-11-15T00:07:47;11.50;98.20
55777;DHT22;54079;44.540;18.784;2022-11-15T00:10:13;11.40;99.20
55777;DHT22;54079;44.540;18.784;2022-11-15T00:12:39;11.50;99.40
55777;DHT22;54079;44.540;18.784;2022-11-15T00:15:05;11.50;99.50
55777;DHT22;54079;44.540;18.784;2022-11-15T00:17:31;11.40;99.30
55777;DHT22;54079;44.540;18.784;2022-11-15T00:19:57;11.20;99.90
55777;DHT22;54079;44.540;18.784;2022-11-15T00:22:23;11.30;99.90
55777;DHT22;54079;44.540;18.784;2022-11-15T00:24:49;11.40;99.90
55777;DHT22;54079;44.540;18.784;2022-11-15T00:27:15;11.60;99.90
55777;DHT22;54079;44.540;18.784;2022-11-15T00:29:41;11.70;99.90
55777;DHT22;54079;44.540;18.784;2022-11-15T00:32:11;11.70;99.60
55777;DHT22;54079;44.540;18.784;2022-11-15T00:34:38;11.60;99.90
55777;DHT22;54079;44.540;18.784;2022-11-15T00:37:04;11.60;99.90
55777;DHT22;54079;44.540;18.784;2022-11-15T00:39:29;11.60;99.90
55777;DHT22;54079;44.540;18.784;2022-11-15T00:41:55;11.60;99.90
55777;DHT22;54079;44.540;18.784;2022-11-15T00:44:22;11.70;99.90
55777;DHT22;54079;44.540;18.784;2022-11-15T00:46:48;11.80;99.90
55777;DHT22;54079;44.540;18.784;2022-11-15T00:49:13;11.90;99.90
55777;DHT22;54079;44.540;18.784;2022-11-15T00:51:39;11.80;99.90
55777;DHT22;54079;44.540;18.784;2022-11-15T00:54:05;11.90;99.90
55777;DHT22;54079;44.540;18.784;2022-11-15T00:56:31;11.80;99.90
55777;DHT22;54079;44.540;18.784;2022-11-15T00:58:57;11.90;99.90
55777;DHT22;54079;44.540;18.784;2022-11-15T01:01:23;11.90;99.90
55777;DHT22;54079;44.540;18.784;2022-11-15T01:03:49;11.70;99.90
55777;DHT22;54079;44.540;18.784;2022-11-15T01:06:15;11.70;99.90
55777;DHT22;54079;44.540;18.784;2022-11-15T01:08:41;11.70;99.90
55777;DHT22;54079;44.540;18.784;2022-11-15T01:11:11;11.70;99.90
55777;DHT22;54079;44.540;18.784;2022-11-15T01:13:38;11.90;99.90
55777;DHT22;54079;44.540;18.784;2022-11-15T01:16:13;11.80;99.90
55777;DHT22;54079;44.540;18.784;2022-11-15T01:18:39;11.90;99.90
55777;DHT22;54079;44.540;18.784;2022-11-15T01:21:11;11.90;99.90
55777;DHT22;54079;44.540;18.784;2022-11-15T01:23:37;11.70;99.90
55777;DHT22;54079;44.540;18.784;2022-11-15T01:26:06;11.70;99.90
55777;DHT22;54079;44.540;18.784;2022-11-15T01:28:34;11.70;99.90
55777;DHT22;54079;44.540;18.784;2022-11-15T01:31:02;11.70;99.90
55777;DHT22;54079;44.540;18.784;2022-11-15T01:33:28;11.80;99.90
55777;DHT22;54079;44.540;18.784;2022-11-15T01:35:54;11.90;99.10
55777;DHT22;54079;44.540;18.784;2022-11-15T01:38:21;11.70;99.70
55777;DHT22;54079;44.540;18.784;2022-11-15T01:40:48;11.70;99.90
55777;DHT22;54079;44.540;18.784;2022-11-15T01:43:28;11.70;99.90
55777;DHT22;54079;44.540;18.784;2022-11-15T01:48:45;11.70;99.90
55777;DHT22;54079;44.540;18.784;2022-11-15T01:51:13;11.70;99.20
55777;DHT22;54079;44.540;18.784;2022-11-15T01:53:44;11.50;99.60
55777;DHT22;54079;44.540;18.784;2022-11-15T01:56:15;11.50;99.80
55777;DHT22;54079;44.540;18.784;2022-11-15T01:58:43;11.50;99.80
55777;DHT22;54079;44.540;18.784;2022-11-15T02:01:10;11.40;99.90
55777;DHT22;54079;44.540;18.784;2022-11-15T02:03:51;11.50;99.60
55777;DHT22;54079;44.540;18.784;2022-11-15T02:06:19;11.50;99.30
55777;DHT22;54079;44.540;18.784;2022-11-15T02:08:45;11.40;99.90
55777;DHT22;54079;44.540;18.784;2022-11-15T02:11:11;11.40;99.90
55777;DHT22;54079;44.540;18.784;2022-11-15T02:13:37;11.50;99.90
55777;DHT22;54079;44.540;18.784;2022-11-15T02:18:57;11.40;99.90
55777;DHT22;54079;44.540;18.784;2022-11-15T02:35:24;11.10;99.90
55777;DHT22;54079;44.540;18.784;2022-11-15T02:37:57;11.10;99.90
55777;DHT22;54079;44.540;18.784;2022-11-15T02:43:13;10.90;99.90
55777;DHT22;54079;44.540;18.784;2022-11-15T02:46:37;10.40;99.90
55777;DHT22;54079;44.540;18.784;2022-11-15T02:49:24;10.70;99.90
55777;DHT22;54079;44.540;18.784;2022-11-15T02:51:52;10.80;99.90
55777;DHT22;54079;44.540;18.784;2022-11-15T02:54:22;11.00;99.90
55777;DHT22;54079;44.540;18.784;2022-11-15T02:56:51;11.10;99.90
55777;DHT22;54079;44.540;18.784;2022-11-15T02:59:48;11.20;99.90
55777;DHT22;54079;44.540;18.784;2022-11-15T03:04:58;11.60;99.90
55777;DHT22;54079;44.540;18.784;2022-11-15T03:07:55;11.50;99.90
55777;DHT22;54079;44.540;18.784;2022-11-15T03:10:41;11.50;99.90
55777;DHT22;54079;44.540;18.784;2022-11-15T03:16:03;11.50;99.90
55777;DHT22;54079;44.540;18.784;2022-11-15T03:18:35;11.60;99.90
55777;DHT22;54079;44.540;18.784;2022-11-15T03:21:05;11.60;99.90
55777;DHT22;54079;44.540;18.784;2022-11-15T03:23:33;11.50;99.90
55777;DHT22;54079;44.540;18.784;2022-11-15T03:26:00;11.50;99.90
55777;DHT22;54079;44.540;18.784;2022-11-15T03:28:43;11.60;99.90
55777;DHT22;54079;44.540;18.784;2022-11-15T03:31:14;11.60;99.90
55777;DHT22;54079;44.540;18.784;2022-11-15T03:34:02;11.40;99.90
55777;DHT22;54079;44.540;18.784;2022-11-15T03:36:30;11.30;99.90
55777;DHT22;54079;44.540;18.784;2022-11-15T03:39:02;11.30;99.90
55777;DHT22;54079;44.540;18.784;2022-11-15T03:41:46;11.40;99.90
55777;DHT22;54079;44.540;18.784;2022-11-15T03:44:43;11.40;99.90
55777;DHT22;54079;44.540;18.784;2022-11-15T03:47:58;11.40;99.90
55777;DHT22;54079;44.540;18.784;2022-11-15T03:50:18;11.20;99.90
55777;DHT22;54079;44.540;18.784;2022-11-15T03:52:47;11.10;99.90
55777;DHT22;54079;44.540;18.784;2022-11-15T03:55:17;11.10;99.90
55777;DHT22;54079;44.540;18.784;2022-11-15T03:57:44;11.10;99.90
55777;DHT22;54079;44.540;18.784;2022-11-15T04:00:10;11.00;99.90
55777;DHT22;54079;44.540;18.784;2022-11-15T04:02:36;11.00;99.90
55777;DHT22;54079;44.540;18.784;2022-11-15T04:05:03;11.00;99.90
55777;DHT22;54079;44.540;18.784;2022-11-15T04:07:29;10.90;99.90
55777;DHT22;54079;44.540;18.784;2022-11-15T04:09:55;10.80;99.90
55777;DHT22;54079;44.540;18.784;2022-11-15T04:12:36;10.60;99.90
55777;DHT22;54079;44.540;18.784;2022-11-15T04:15:09;10.50;99.90
55777;DHT22;54079;44.540;18.784;2022-11-15T04:17:44;10.30;99.90
55777;DHT22;54079;44.540;18.784;2022-11-15T04:20:16;10.30;99.90
55777;DHT22;54079;44.540;18.784;2022-11-15T04:23:03;10.30;99.90
55777;DHT22;54079;44.540;18.784;2022-11-15T04:25:50;10.40;99.90
55777;DHT22;54079;44.540;18.784;2022-11-15T04:28:17;10.40;99.90
55777;DHT22;54079;44.540;18.784;2022-11-15T04:30:43;10.40;99.90
55777;DHT22;54079;44.540;18.784;2022-11-15T04:33:09;10.40;99.90
55777;DHT22;54079;44.540;18.784;2022-11-15T04:35:35;10.50;99.90
55777;DHT22;54079;44.540;18.784;2022-11-15T04:38:03;10.50;99.90
55777;DHT22;54079;44.540;18.784;2022-11-15T04:40:30;10.50;99.90
55777;DHT22;54079;44.540;18.784;2022-11-15T04:42:56;10.60;99.90
55777;DHT22;54079;44.540;18.784;2022-11-15T04:45:22;10.60;99.90
55777;DHT22;54079;44.540;18.784;2022-11-15T04:47:48;10.50;99.90
55777;DHT22;54079;44.540;18.784;2022-11-15T04:50:15;10.50;99.90
55777;DHT22;54079;44.540;18.784;2022-11-15T04:52:42;10.60;99.90
55777;DHT22;54079;44.540;18.784;2022-11-15T04:55:10;10.70;99.90
55777;DHT22;54079;44.540;18.784;2022-11-15T04:57:36;10.60;99.90
55777;DHT22;54079;44.540;18.784;2022-11-15T05:00:08;10.70;99.90
55777;DHT22;54079;44.540;18.784;2022-11-15T05:02:34;10.90;99.90
55777;DHT22;54079;44.540;18.784;2022-11-15T05:05:18;10.90;99.90
55777;DHT22;54079;44.540;18.784;2022-11-15T05:07:45;11.00;99.90
55777;DHT22;54079;44.540;18.784;2022-11-15T05:10:11;11.00;99.90
55777;DHT22;54079;44.540;18.784;2022-11-15T05:12:37;10.90;99.90
55777;DHT22;54079;44.540;18.784;2022-11-15T05:15:03;10.60;99.90
55777;DHT22;54079;44.540;18.784;2022-11-15T05:17:29;10.50;99.90
55777;DHT22;54079;44.540;18.784;2022-11-15T05:19:55;10.50;99.90
55777;DHT22;54079;44.540;18.784;2022-11-15T05:22:21;10.60;99.90
55777;DHT22;54079;44.540;18.784;2022-11-15T05:24:47;10.60;99.90
55777;DHT22;54079;44.540;18.784;2022-11-15T05:27:13;10.70;99.90
55777;DHT22;54079;44.540;18.784;2022-11-15T05:29:39;10.80;99.90
55777;DHT22;54079;44.540;18.784;2022-11-15T05:32:06;10.90;99.90
55777;DHT22;54079;44.540;18.784;2022-11-15T05:34:34;11.10;99.90
55777;DHT22;54079;44.540;18.784;2022-11-15T05:37:00;11.10;99.90
55777;DHT22;54079;44.540;18.784;2022-11-15T05:39:26;11.10;99.90
55777;DHT22;54079;44.540;18.784;2022-11-15T05:42:05;11.10;99.90
55777;DHT22;54079;44.540;18.784;2022-11-15T05:44:34;11.00;99.90
55777;DHT22;54079;44.540;18.784;2022-11-15T05:47:03;10.90;99.90
55777;DHT22;54079;44.540;18.784;2022-11-15T05:49:32;10.90;99.90
55777;DHT22;54079;44.540;18.784;2022-11-15T05:52:00;10.90;99.90
55777;DHT22;54079;44.540;18.784;2022-11-15T05:54:28;10.90;99.90
55777;DHT22;54079;44.540;18.784;2022-11-15T05:56:54;11.00;99.90
55777;DHT22;54079;44.540;18.784;2022-11-15T05:59:21;11.10;99.90
55777;DHT22;54079;44.540;18.784;2022-11-15T06:01:47;11.10;99.90
55777;DHT22;54079;44.540;18.784;2022-11-15T06:04:13;11.00;99.90
55777;DHT22;54079;44.540;18.784;2022-11-15T06:06:39;10.90;99.90
55777;DHT22;54079;44.540;18.784;2022-11-15T06:09:05;10.80;99.90
55777;DHT22;54079;44.540;18.784;2022-11-15T06:11:31;10.80;99.90
55777;DHT22;54079;44.540;18.784;2022-11-15T06:13:56;10.80;99.90
55777;DHT22;54079;44.540;18.784;2022-11-15T06:16:22;11.00;99.90
55777;DHT22;54079;44.540;18.784;2022-11-15T06:18:48;11.00;99.90
55777;DHT22;54079;44.540;18.784;2022-11-15T06:21:15;11.10;99.90
55777;DHT22;54079;44.540;18.784;2022-11-15T06:23:41;11.10;99.90
55777;DHT22;54079;44.540;18.784;2022-11-15T06:26:08;11.20;99.90
55777;DHT22;54079;44.540;18.784;2022-11-15T06:28:34;11.30;99.90
55777;DHT22;54079;44.540;18.784;2022-11-15T06:31:09;11.40;99.90
55777;DHT22;54079;44.540;18.784;2022-11-15T06:33:39;11.30;99.90
55777;DHT22;54079;44.540;18.784;2022-11-15T06:36:07;11.30;99.90
55777;DHT22;54079;44.540;18.784;2022-11-15T06:38:34;11.20;99.90
55777;DHT22;54079;44.540;18.784;2022-11-15T06:41:04;11.30;99.90
55777;DHT22;54079;44.540;18.784;2022-11-15T06:43:31;11.30;99.90
55777;DHT22;54079;44.540;18.784;2022-11-15T06:46:01;11.30;99.90
55777;DHT22;54079;44.540;18.784;2022-11-15T06:48:28;11.50;99.90
55777;DHT22;54079;44.540;18.784;2022-11-15T06:50:59;11.60;99.90
55777;DHT22;54079;44.540;18.784;2022-11-15T06:53:27;11.60;99.90
55777;DHT22;54079;44.540;18.784;2022-11-15T06:55:53;11.40;99.90
55777;DHT22;54079;44.540;18.784;2022-11-15T06:58:23;11.30;99.90
55777;DHT22;54079;44.540;18.784;2022-11-15T07:00:49;11.20;99.90
55777;DHT22;54079;44.540;18.784;2022-11-15T07:03:15;11.10;99.90
55777;DHT22;54079;44.540;18.784;2022-11-15T07:05:41;11.30;99.90
55777;DHT22;54079;44.540;18.784;2022-11-15T07:08:07;11.50;99.90
55777;DHT22;54079;44.540;18.784;2022-11-15T07:10:33;11.80;99.90
55777;DHT22;54079;44.540;18.784;2022-11-15T07:12:59;12.00;99.90
55777;DHT22;54079;44.540;18.784;2022-11-15T07:15:25;11.50;99.90
55777;DHT22;54079;44.540;18.784;2022-11-15T07:17:52;11.70;99.90
55777;DHT22;54079;44.540;18.784;2022-11-15T07:20:18;12.10;99.90
55777;DHT22;54079;44.540;18.784;2022-11-15T07:22:44;12.30;99.90
55777;DHT22;54079;44.540;18.784;2022-11-15T07:25:13;12.50;99.90
55777;DHT22;54079;44.540;18.784;2022-11-15T07:27:38;12.60;99.60
55777;DHT22;54079;44.540;18.784;2022-11-15T07:30:05;12.80;99.40
55777;DHT22;54079;44.540;18.784;2022-11-15T07:32:31;12.80;97.60
55777;DHT22;54079;44.540;18.784;2022-11-15T07:34:57;13.00;99.10
55777;DHT22;54079;44.540;18.784;2022-11-15T07:37:23;13.10;96.60
55777;DHT22;54079;44.540;18.784;2022-11-15T07:39:49;13.10;96.80
55777;DHT22;54079;44.540;18.784;2022-11-15T07:42:15;13.20;98.90
55777;DHT22;54079;44.540;18.784;2022-11-15T07:44:59;13.30;95.70
55777;DHT22;54079;44.540;18.784;2022-11-15T07:47:25;13.30;96.30
55777;DHT22;54079;44.540;18.784;2022-11-15T07:49:51;13.50;95.60
55777;DHT22;54079;44.540;18.784;2022-11-15T07:52:17;14.00;94.70
55777;DHT22;54079;44.540;18.784;2022-11-15T07:54:43;14.60;92.00
55777;DHT22;54079;44.540;18.784;2022-11-15T07:57:09;14.90;91.00
55777;DHT22;54079;44.540;18.784;2022-11-15T07:59:35;15.00;88.90
55777;DHT22;54079;44.540;18.784;2022-11-15T08:02:02;15.00;89.30
55777;DHT22;54079;44.540;18.784;2022-11-15T08:04:28;14.90;88.90
55777;DHT22;54079;44.540;18.784;2022-11-15T08:06:53;14.60;90.90
55777;DHT22;54079;44.540;18.784;2022-11-15T08:09:20;14.50;91.30
55777;DHT22;54079;44.540;18.784;2022-11-15T08:11:46;14.50;90.70
55777;DHT22;54079;44.540;18.784;2022-11-15T08:14:12;14.50;90.40
55777;DHT22;54079;44.540;18.784;2022-11-15T08:16:38;14.50;91.50
55777;DHT22;54079;44.540;18.784;2022-11-15T08:19:04;14.50;92.50
55777;DHT22;54079;44.540;18.784;2022-11-15T08:21:30;14.60;93.20
55777;DHT22;54079;44.540;18.784;2022-11-15T08:23:56;14.70;92.50
55777;DHT22;54079;44.540;18.784;2022-11-15T08:26:22;14.80;91.80
55777;DHT22;54079;44.540;18.784;2022-11-15T08:28:48;14.80;91.10
55777;DHT22;54079;44.540;18.784;2022-11-15T08:31:18;14.90;91.10
55777;DHT22;54079;44.540;18.784;2022-11-15T08:33:44;14.90;91.30
55777;DHT22;54079;44.540;18.784;2022-11-15T08:36:15;14.60;92.00
55777;DHT22;54079;44.540;18.784;2022-11-15T08:38:42;15.00;92.60
55777;DHT22;54079;44.540;18.784;2022-11-15T08:41:33;15.90;90.20
55777;DHT22;54079;44.540;18.784;2022-11-15T08:43:57;16.50;84.10
55777;DHT22;54079;44.540;18.784;2022-11-15T08:46:23;16.70;83.20
55777;DHT22;54079;44.540;18.784;2022-11-15T08:48:49;16.50;82.50
55777;DHT22;54079;44.540;18.784;2022-11-15T08:51:15;16.20;83.70
55777;DHT22;54079;44.540;18.784;2022-11-15T08:53:42;15.90;84.40
55777;DHT22;54079;44.540;18.784;2022-11-15T08:56:09;15.80;86.20
55777;DHT22;54079;44.540;18.784;2022-11-15T08:58:36;16.00;86.10
55777;DHT22;54079;44.540;18.784;2022-11-15T09:01:03;16.10;85.70
55777;DHT22;54079;44.540;18.784;2022-11-15T09:03:29;16.30;85.30
55777;DHT22;54079;44.540;18.784;2022-11-15T09:05:56;16.80;83.30
55777;DHT22;54079;44.540;18.784;2022-11-15T09:08:23;17.00;83.70
55777;DHT22;54079;44.540;18.784;2022-11-15T09:10:50;17.40;82.20
55777;DHT22;54079;44.540;18.784;2022-11-15T09:13:16;17.70;81.60
55777;DHT22;54079;44.540;18.784;2022-11-15T09:15:42;17.90;80.70
55777;DHT22;54079;44.540;18.784;2022-11-15T09:18:08;17.90;80.60
55777;DHT22;54079;44.540;18.784;2022-11-15T09:20:34;18.20;80.60
55777;DHT22;54079;44.540;18.784;2022-11-15T09:23:01;18.40;79.30
55777;DHT22;54079;44.540;18.784;2022-11-15T09:25:27;18.20;78.60
55777;DHT22;54079;44.540;18.784;2022-11-15T09:27:54;18.00;78.60
55777;DHT22;54079;44.540;18.784;2022-11-15T09:30:20;17.70;79.50
55777;DHT22;54079;44.540;18.784;2022-11-15T09:32:46;17.30;80.30
55777;DHT22;54079;44.540;18.784;2022-11-15T09:35:12;17.30;80.40
55777;DHT22;54079;44.540;18.784;2022-11-15T09:37:37;17.10;81.10
55777;DHT22;54079;44.540;18.784;2022-11-15T09:40:04;17.00;81.90
55777;DHT22;54079;44.540;18.784;2022-11-15T09:42:40;17.00;82.00
55777;DHT22;54079;44.540;18.784;2022-11-15T09:45:26;16.90;82.40
55777;DHT22;54079;44.540;18.784;2022-11-15T09:50:39;17.00;83.50
55777;DHT22;54079;44.540;18.784;2022-11-15T09:53:14;17.00;83.30
55777;DHT22;54079;44.540;18.784;2022-11-15T09:56:01;17.10;83.80
55777;DHT22;54079;44.540;18.784;2022-11-15T09:58:33;17.20;84.90
55777;DHT22;54079;44.540;18.784;2022-11-15T10:01:07;17.60;84.30
55777;DHT22;54079;44.540;18.784;2022-11-15T10:03:36;18.00;83.50
55777;DHT22;54079;44.540;18.784;2022-11-15T10:06:05;18.30;81.10
55777;DHT22;54079;44.540;18.784;2022-11-15T10:08:43;18.50;79.90
55777;DHT22;54079;44.540;18.784;2022-11-15T10:11:20;18.60;80.20
55777;DHT22;54079;44.540;18.784;2022-11-15T10:13:48;18.70;79.30
55777;DHT22;54079;44.540;18.784;2022-11-15T10:24:26;18.80;78.80
55777;DHT22;54079;44.540;18.784;2022-11-15T10:26:55;19.00;77.70
55777;DHT22;54079;44.540;18.784;2022-11-15T10:29:23;19.10;78.10
55777;DHT22;54079;44.540;18.784;2022-11-15T10:31:49;19.30;77.60
55777;DHT22;54079;44.540;18.784;2022-11-15T10:34:20;19.20;75.70
55777;DHT22;54079;44.540;18.784;2022-11-15T10:36:54;19.30;74.90
55777;DHT22;54079;44.540;18.784;2022-11-15T10:39:20;19.10;75.50
55777;DHT22;54079;44.540;18.784;2022-11-15T10:41:46;19.20;76.50
55777;DHT22;54079;44.540;18.784;2022-11-15T10:46:44;19.40;76.50
55777;DHT22;54079;44.540;18.784;2022-11-15T10:49:19;19.40;76.10
55777;DHT22;54079;44.540;18.784;2022-11-15T10:51:48;19.50;75.30
55777;DHT22;54079;44.540;18.784;2022-11-15T10:57:27;19.80;74.60
55777;DHT22;54079;44.540;18.784;2022-11-15T11:00:07;19.80;74.50
55777;DHT22;54079;44.540;18.784;2022-11-15T11:03:04;19.80;75.80
55777;DHT22;54079;44.540;18.784;2022-11-15T11:05:38;19.90;75.20
55777;DHT22;54079;44.540;18.784;2022-11-15T11:08:05;20.00;74.70
55777;DHT22;54079;44.540;18.784;2022-11-15T11:10:35;19.80;72.90
55777;DHT22;54079;44.540;18.784;2022-11-15T11:13:24;19.80;73.70
55777;DHT22;54079;44.540;18.784;2022-11-15T11:33:30;20.10;68.10
55777;DHT22;54079;44.540;18.784;2022-11-15T11:44:45;19.50;70.70
55777;DHT22;54079;44.540;18.784;2022-11-15T11:47:23;19.50;70.90
55777;DHT22;54079;44.540;18.784;2022-11-15T11:50:11;19.70;70.60
55777;DHT22;54079;44.540;18.784;2022-11-15T11:53:10;20.00;69.00
55777;DHT22;54079;44.540;18.784;2022-11-15T11:55:44;19.90;69.00
55777;DHT22;54079;44.540;18.784;2022-11-15T11:58:26;19.90;70.50
55777;DHT22;54079;44.540;18.784;2022-11-15T12:03:38;19.70;70.70
55777;DHT22;54079;44.540;18.784;2022-11-15T12:09:17;19.90;70.90
55777;DHT22;54079;44.540;18.784;2022-11-15T12:12:55;19.70;71.40
55777;DHT22;54079;44.540;18.784;2022-11-15T12:17:36;19.60;70.70
55777;DHT22;54079;44.540;18.784;2022-11-15T12:20:29;19.70;69.70
55777;DHT22;54079;44.540;18.784;2022-11-15T12:23:04;19.80;70.80
55777;DHT22;54079;44.540;18.784;2022-11-15T12:25:41;19.90;69.90
55777;DHT22;54079;44.540;18.784;2022-11-15T12:31:05;19.90;69.70
55777;DHT22;54079;44.540;18.784;2022-11-15T12:33:41;19.80;68.90
55777;DHT22;54079;44.540;18.784;2022-11-15T12:36:41;19.60;69.60
55777;DHT22;54079;44.540;18.784;2022-11-15T12:39:09;19.70;69.50
55777;DHT22;54079;44.540;18.784;2022-11-15T12:41:40;19.60;70.60
55777;DHT22;54079;44.540;18.784;2022-11-15T12:59:53;19.10;73.80
55777;DHT22;54079;44.540;18.784;2022-11-15T13:07:59;19.20;73.50
55777;DHT22;54079;44.540;18.784;2022-11-15T13:12:57;19.20;74.00
55777;DHT22;54079;44.540;18.784;2022-11-15T13:15:56;19.20;73.50
55777;DHT22;54079;44.540;18.784;2022-11-15T13:18:30;19.10;73.50
55777;DHT22;54079;44.540;18.784;2022-11-15T13:20:58;19.10;74.80
55777;DHT22;54079;44.540;18.784;2022-11-15T13:23:24;19.00;74.60
55777;DHT22;54079;44.540;18.784;2022-11-15T13:31:34;18.90;75.60
55777;DHT22;54079;44.540;18.784;2022-11-15T13:34:15;18.90;75.60
55777;DHT22;54079;44.540;18.784;2022-11-15T13:36:41;19.00;75.60
55777;DHT22;54079;44.540;18.784;2022-11-15T13:39:34;18.90;74.60
55777;DHT22;54079;44.540;18.784;2022-11-15T13:42:02;18.60;75.30
55777;DHT22;54079;44.540;18.784;2022-11-15T13:44:31;18.70;76.50
55777;DHT22;54079;44.540;18.784;2022-11-15T13:47:13;18.70;76.60
55777;DHT22;54079;44.540;18.784;2022-11-15T13:49:40;18.60;76.00
55777;DHT22;54079;44.540;18.784;2022-11-15T13:52:09;18.60;76.30
55777;DHT22;54079;44.540;18.784;2022-11-15T13:57:12;18.10;77.40
55777;DHT22;54079;44.540;18.784;2022-11-15T13:59:56;18.00;77.90
55777;DHT22;54079;44.540;18.784;2022-11-15T14:02:30;18.10;78.00
55777;DHT22;54079;44.540;18.784;2022-11-15T14:07:27;18.10;77.20
55777;DHT22;54079;44.540;18.784;2022-11-15T14:09:56;18.10;77.50
55777;DHT22;54079;44.540;18.784;2022-11-15T14:12:34;18.20;77.90
55777;DHT22;54079;44.540;18.784;2022-11-15T14:17:44;17.90;78.30
55777;DHT22;54079;44.540;18.784;2022-11-15T14:20:40;18.00;78.40
55777;DHT22;54079;44.540;18.784;2022-11-15T14:23:24;18.10;78.10
55777;DHT22;54079;44.540;18.784;2022-11-15T14:25:57;18.00;78.70
55777;DHT22;54079;44.540;18.784;2022-11-15T14:30:52;17.70;79.70
55777;DHT22;54079;44.540;18.784;2022-11-15T14:33:36;17.70;80.10
55777;DHT22;54079;44.540;18.784;2022-11-15T14:38:31;17.30;81.40
55777;DHT22;54079;44.540;18.784;2022-11-15T14:40:57;17.10;82.80
55777;DHT22;54079;44.540;18.784;2022-11-15T14:43:23;16.90;83.80
55777;DHT22;54079;44.540;18.784;2022-11-15T14:45:49;16.80;84.40
55777;DHT22;54079;44.540;18.784;2022-11-15T14:48:15;16.60;85.10
55777;DHT22;54079;44.540;18.784;2022-11-15T14:50:41;16.40;86.80
55777;DHT22;54079;44.540;18.784;2022-11-15T14:53:12;16.20;88.60
55777;DHT22;54079;44.540;18.784;2022-11-15T14:55:39;16.10;89.90
55777;DHT22;54079;44.540;18.784;2022-11-15T14:58:06;16.00;90.50
55777;DHT22;54079;44.540;18.784;2022-11-15T15:00:37;16.00;91.20
55777;DHT22;54079;44.540;18.784;2022-11-15T15:03:04;16.00;91.50
55777;DHT22;54079;44.540;18.784;2022-11-15T15:05:43;15.90;91.60
55777;DHT22;54079;44.540;18.784;2022-11-15T15:08:10;15.90;91.50
55777;DHT22;54079;44.540;18.784;2022-11-15T15:10:44;15.70;92.40
55777;DHT22;54079;44.540;18.784;2022-11-15T15:15:42;15.30;95.10
55777;DHT22;54079;44.540;18.784;2022-11-15T15:18:08;15.00;97.00
55777;DHT22;54079;44.540;18.784;2022-11-15T15:20:41;14.80;98.40
55777;DHT22;54079;44.540;18.784;2022-11-15T15:23:18;14.50;99.60
55777;DHT22;54079;44.540;18.784;2022-11-15T15:25:45;14.50;99.80
55777;DHT22;54079;44.540;18.784;2022-11-15T15:28:12;14.20;99.90
55777;DHT22;54079;44.540;18.784;2022-11-15T15:30:38;14.00;99.90
55777;DHT22;54079;44.540;18.784;2022-11-15T15:33:04;13.80;99.90
55777;DHT22;54079;44.540;18.784;2022-11-15T15:35:32;13.70;99.90
55777;DHT22;54079;44.540;18.784;2022-11-15T15:37:59;13.60;99.90
55777;DHT22;54079;44.540;18.784;2022-11-15T15:40:27;13.50;99.90
55777;DHT22;54079;44.540;18.784;2022-11-15T15:42:53;13.40;99.90
55777;DHT22;54079;44.540;18.784;2022-11-15T15:45:19;13.40;99.90
55777;DHT22;54079;44.540;18.784;2022-11-15T15:47:46;13.30;99.90
55777;DHT22;54079;44.540;18.784;2022-11-15T15:50:27;13.20;99.90
55777;DHT22;54079;44.540;18.784;2022-11-15T15:52:56;13.20;99.90
55777;DHT22;54079;44.540;18.784;2022-11-15T15:55:23;13.20;99.90
55777;DHT22;54079;44.540;18.784;2022-11-15T15:57:49;13.10;99.90
55777;DHT22;54079;44.540;18.784;2022-11-15T16:00:17;13.10;99.90
55777;DHT22;54079;44.540;18.784;2022-11-15T16:02:43;13.10;99.90
55777;DHT22;54079;44.540;18.784;2022-11-15T16:05:09;13.10;99.90
55777;DHT22;54079;44.540;18.784;2022-11-15T16:07:36;13.10;99.90
55777;DHT22;54079;44.540;18.784;2022-11-15T16:10:19;13.20;99.90
55777;DHT22;54079;44.540;18.784;2022-11-15T16:12:45;13.10;99.90
55777;DHT22;54079;44.540;18.784;2022-11-15T16:15:12;13.10;99.90
55777;DHT22;54079;44.540;18.784;2022-11-15T16:17:42;13.10;99.90
55777;DHT22;54079;44.540;18.784;2022-11-15T16:20:30;12.90;99.90
55777;DHT22;54079;44.540;18.784;2022-11-15T16:22:57;12.90;99.90
55777;DHT22;54079;44.540;18.784;2022-11-15T16:25:23;12.90;99.90
55777;DHT22;54079;44.540;18.784;2022-11-15T16:27:50;12.70;99.90
55777;DHT22;54079;44.540;18.784;2022-11-15T16:30:18;12.70;99.90
55777;DHT22;54079;44.540;18.784;2022-11-15T16:32:45;12.60;99.90
55777;DHT22;54079;44.540;18.784;2022-11-15T16:35:15;12.50;99.90
55777;DHT22;54079;44.540;18.784;2022-11-15T16:37:42;12.40;99.90
55777;DHT22;54079;44.540;18.784;2022-11-15T16:40:24;12.40;99.90
55777;DHT22;54079;44.540;18.784;2022-11-15T16:42:50;12.40;99.90
55777;DHT22;54079;44.540;18.784;2022-11-15T16:45:16;12.30;99.90
55777;DHT22;54079;44.540;18.784;2022-11-15T16:47:43;12.30;99.90
55777;DHT22;54079;44.540;18.784;2022-11-15T16:50:22;12.30;99.90
55777;DHT22;54079;44.540;18.784;2022-11-15T16:52:50;12.40;99.90
55777;DHT22;54079;44.540;18.784;2022-11-15T16:55:16;12.50;99.90
55777;DHT22;54079;44.540;18.784;2022-11-15T16:57:42;12.50;99.90
55777;DHT22;54079;44.540;18.784;2022-11-15T17:00:11;12.60;99.90
55777;DHT22;54079;44.540;18.784;2022-11-15T17:02:37;12.70;99.90
55777;DHT22;54079;44.540;18.784;2022-11-15T17:05:04;12.70;99.90
55777;DHT22;54079;44.540;18.784;2022-11-15T17:07:30;12.60;99.90
55777;DHT22;54079;44.540;18.784;2022-11-15T17:09:56;12.60;99.90
55777;DHT22;54079;44.540;18.784;2022-11-15T17:12:22;12.60;99.90
55777;DHT22;54079;44.540;18.784;2022-11-15T17:14:48;12.50;99.90
55777;DHT22;54079;44.540;18.784;2022-11-15T17:17:14;12.50;99.90
55777;DHT22;54079;44.540;18.784;2022-11-15T17:19:40;12.50;99.90
55777;DHT22;54079;44.540;18.784;2022-11-15T17:22:06;12.40;99.90
55777;DHT22;54079;44.540;18.784;2022-11-15T17:24:32;12.40;99.90
55777;DHT22;54079;44.540;18.784;2022-11-15T17:26:57;12.30;99.90
55777;DHT22;54079;44.540;18.784;2022-11-15T17:29:23;12.30;99.90
55777;DHT22;54079;44.540;18.784;2022-11-15T17:31:49;12.10;99.90
55777;DHT22;54079;44.540;18.784;2022-11-15T17:34:15;12.00;99.90
55777;DHT22;54079;44.540;18.784;2022-11-15T17:36:41;12.10;99.90
55777;DHT22;54079;44.540;18.784;2022-11-15T17:39:08;12.00;99.90